createdAt,value
2018-10-18T00:01:26.184Z,13.00
2018-10-18T00:06:29.292Z,12.90
2018-10-18T00:11:32.505Z,12.90
2018-10-18T00:16:35.593Z,12.80
2018-10-18T00:21:38.722Z,12.80
2018-10-18T00:26:41.886Z,12.70
2018-10-18T00:31:45.210Z,12.70
2018-10-18T00:36:48.387Z,12.70
2018-10-18T00:41:51.552Z,12.70
2018-10-18T00:46:54.695Z,12.70
2018-10-18T00:51:57.963Z,12.60
2018-10-18T00:57:01.124Z,12.60
2018-10-18T01:02:04.319Z,12.60
2018-10-18T01:07:07.551Z,12.50
2018-10-18T01:12:10.771Z,12.50
2018-10-18T01:17:13.855Z,12.50
2018-10-18T01:22:17.050Z,12.50
2018-10-18T01:27:20.154Z,12.50
2018-10-18T01:32:23.336Z,12.50
2018-10-18T01:37:26.463Z,12.40
2018-10-18T01:42:29.576Z,12.40
2018-10-18T01:47:32.849Z,12.40
2018-10-18T01:52:36.181Z,12.40
2018-10-18T01:57:39.613Z,12.40
2018-10-18T02:02:42.713Z,12.30
2018-10-18T02:07:45.854Z,12.30
2018-10-18T02:12:49.034Z,12.20
2018-10-18T02:17:52.191Z,12.10
2018-10-18T02:22:55.314Z,12.10
2018-10-18T02:27:58.483Z,12.00
2018-10-18T02:33:01.618Z,12.00
2018-10-18T02:38:04.888Z,12.00
2018-10-18T02:43:08.065Z,12.00
2018-10-18T02:48:11.298Z,12.00
2018-10-18T02:53:14.354Z,12.00
2018-10-18T02:58:17.520Z,11.90
2018-10-18T03:03:20.801Z,11.90
2018-10-18T03:08:23.990Z,11.90
2018-10-18T03:13:27.169Z,11.90
2018-10-18T03:18:30.277Z,11.80
2018-10-18T03:23:33.346Z,11.80
2018-10-18T03:28:36.486Z,11.80
2018-10-18T03:33:39.694Z,11.80
2018-10-18T03:38:42.795Z,11.70
2018-10-18T03:43:45.982Z,11.70
2018-10-18T03:48:49.123Z,11.80
2018-10-18T03:53:52.326Z,11.80
2018-10-18T03:58:55.388Z,11.70
2018-10-18T04:03:58.592Z,11.70
2018-10-18T04:09:01.774Z,11.60
2018-10-18T04:14:05.152Z,11.60
2018-10-18T04:19:08.357Z,11.60
2018-10-18T04:24:11.558Z,11.60
2018-10-18T04:29:14.626Z,11.60
2018-10-18T04:34:17.752Z,11.70
2018-10-18T04:39:20.880Z,11.70
2018-10-18T04:44:24.022Z,11.80
2018-10-18T04:49:27.150Z,11.80
2018-10-18T04:54:30.281Z,11.70
2018-10-18T04:59:33.427Z,11.70
2018-10-18T05:04:36.588Z,11.60
2018-10-18T05:09:40.053Z,11.60
2018-10-18T05:14:43.153Z,11.50
2018-10-18T05:19:46.287Z,11.50
2018-10-18T05:24:49.482Z,11.40
2018-10-18T05:29:52.644Z,11.40
2018-10-18T05:34:55.768Z,11.30
2018-10-18T05:39:58.904Z,11.30
2018-10-18T05:45:02.067Z,11.20
2018-10-18T05:50:05.988Z,11.30
2018-10-18T05:55:10.500Z,11.30
2018-10-18T06:00:18.569Z,11.30
2018-10-18T06:05:21.636Z,11.30
2018-10-18T06:11:01.386Z,11.30
2018-10-18T06:16:04.551Z,11.30
2018-10-18T06:21:07.704Z,11.30
2018-10-18T06:26:10.898Z,11.40
2018-10-18T06:31:14.157Z,11.50
2018-10-18T06:36:17.210Z,11.60
2018-10-18T06:41:20.343Z,11.80
2018-10-18T06:46:23.550Z,12.00
2018-10-18T06:51:26.709Z,12.30
2018-10-18T06:56:29.898Z,12.70
2018-10-18T07:01:33.014Z,13.20
2018-10-18T07:06:36.152Z,14.00
2018-10-18T07:11:39.516Z,14.90
2018-10-18T07:16:42.685Z,15.80
2018-10-18T07:21:45.857Z,16.40
2018-10-18T07:26:49.258Z,16.80
2018-10-18T07:31:52.414Z,16.90
2018-10-18T07:36:55.623Z,16.80
2018-10-18T07:41:58.821Z,16.70
2018-10-18T07:47:02.019Z,16.60
2018-10-18T07:52:05.108Z,16.50
2018-10-18T07:57:08.335Z,16.30
2018-10-18T08:02:11.419Z,16.40
2018-10-18T08:07:14.622Z,16.40
2018-10-18T08:12:17.746Z,16.40
2018-10-18T08:17:20.946Z,16.40
2018-10-18T08:22:24.101Z,16.50
2018-10-18T08:27:27.205Z,16.50
2018-10-18T08:32:30.383Z,16.60
2018-10-18T08:37:33.952Z,16.80
2018-10-18T08:42:37.071Z,17.00
2018-10-18T08:47:40.436Z,17.10
2018-10-18T08:52:43.590Z,17.10
2018-10-18T08:57:46.762Z,17.20
2018-10-18T09:02:51.149Z,17.20
2018-10-18T09:07:54.322Z,17.10
2018-10-18T09:12:57.444Z,17.20
2018-10-18T09:18:00.687Z,17.60
2018-10-18T09:23:03.827Z,17.50
2018-10-18T09:28:06.978Z,17.70
2018-10-18T09:33:10.121Z,17.90
2018-10-18T09:38:13.275Z,18.30
2018-10-18T09:43:16.407Z,19.30
2018-10-18T09:48:19.590Z,20.10
2018-10-18T09:53:22.936Z,20.80
2018-10-18T09:58:26.141Z,21.10
2018-10-18T10:03:29.250Z,21.70
2018-10-18T10:08:32.478Z,21.20
2018-10-18T10:13:35.627Z,20.70
2018-10-18T10:18:38.801Z,20.50
2018-10-18T10:23:42.008Z,20.70
2018-10-18T10:28:45.119Z,21.90
2018-10-18T10:33:48.238Z,22.40
2018-10-18T10:38:51.388Z,22.60
2018-10-18T10:43:54.583Z,23.10
2018-10-18T10:48:57.825Z,23.60
2018-10-18T10:54:01.008Z,24.40
2018-10-18T10:59:16.006Z,24.40
2018-10-18T11:04:19.173Z,24.10
2018-10-18T11:09:22.460Z,24.50
2018-10-18T11:14:25.481Z,24.60
2018-10-18T11:19:28.696Z,25.00
2018-10-18T11:24:31.922Z,24.90
2018-10-18T11:29:35.025Z,24.70
2018-10-18T11:34:38.236Z,25.30
2018-10-18T11:39:41.335Z,25.70
2018-10-18T11:44:44.483Z,25.50
2018-10-18T11:49:47.682Z,25.90
2018-10-18T11:54:50.847Z,26.20
2018-10-18T11:59:54.038Z,26.30
2018-10-18T12:04:57.196Z,25.80
2018-10-18T12:10:00.350Z,24.90
2018-10-18T12:15:03.599Z,24.80
2018-10-18T12:20:09.298Z,24.90
2018-10-18T12:25:13.838Z,24.80
2018-10-18T12:30:17.008Z,24.30
2018-10-18T12:35:20.160Z,23.80
2018-10-18T12:40:23.443Z,23.90
2018-10-18T12:45:26.533Z,25.00
2018-10-18T12:50:29.758Z,24.10
2018-10-18T12:55:32.906Z,23.70
2018-10-18T13:00:36.134Z,23.60
2018-10-18T13:05:39.279Z,23.10
2018-10-18T13:10:42.414Z,22.60
2018-10-18T13:15:45.622Z,22.00
2018-10-18T13:20:48.771Z,22.20
2018-10-18T13:25:51.971Z,21.90
2018-10-18T13:30:55.130Z,21.90
2018-10-18T13:35:58.392Z,21.80
2018-10-18T13:41:01.534Z,21.30
2018-10-18T13:46:04.974Z,20.90
2018-10-18T13:51:08.142Z,20.70
2018-10-18T13:56:12.753Z,20.20
2018-10-18T14:01:15.874Z,20.00
2018-10-18T14:06:19.160Z,19.80
2018-10-18T14:11:22.380Z,19.80
2018-10-18T14:16:25.563Z,19.80
2018-10-18T14:21:28.733Z,19.90
2018-10-18T14:26:31.930Z,20.00
2018-10-18T14:31:37.602Z,19.90
2018-10-18T14:36:40.786Z,19.90
2018-10-18T14:41:43.969Z,19.80
2018-10-18T14:46:47.138Z,19.70
2018-10-18T14:51:50.589Z,19.80
2018-10-18T14:56:53.750Z,19.70
2018-10-18T15:01:56.933Z,19.70
2018-10-18T15:07:00.073Z,19.50
2018-10-18T15:12:03.254Z,19.50
2018-10-18T15:17:06.563Z,19.40
2018-10-18T15:22:09.749Z,19.30
2018-10-18T15:27:13.024Z,19.20
2018-10-18T15:32:16.161Z,19.20
2018-10-18T15:37:19.266Z,19.10
2018-10-18T15:42:22.438Z,19.00
2018-10-18T15:47:25.650Z,18.90
2018-10-18T15:52:28.845Z,18.70
2018-10-18T15:57:31.953Z,18.60
2018-10-18T16:02:35.111Z,18.50
2018-10-18T16:07:38.394Z,18.40
2018-10-18T16:12:41.540Z,18.30
2018-10-18T16:17:44.856Z,18.10
2018-10-18T16:22:47.950Z,18.00
2018-10-18T16:27:51.158Z,17.90
2018-10-18T16:32:54.346Z,17.80
2018-10-18T16:37:57.553Z,17.70
2018-10-18T16:43:00.703Z,17.60
2018-10-18T16:48:03.968Z,17.50
2018-10-18T16:53:07.924Z,17.40
2018-10-18T16:58:11.643Z,17.30
2018-10-18T17:03:14.790Z,17.10
2018-10-18T17:08:18.029Z,17.00
2018-10-18T17:13:21.160Z,17.00
2018-10-18T17:18:24.439Z,16.80
2018-10-18T17:23:27.579Z,16.80
2018-10-18T17:28:30.693Z,16.70
2018-10-18T17:33:33.895Z,16.60
2018-10-18T17:38:37.101Z,16.50
2018-10-18T17:43:40.308Z,16.40
2018-10-18T17:48:43.563Z,16.30
2018-10-18T17:53:46.719Z,16.20
2018-10-18T17:58:49.883Z,16.10
2018-10-18T18:03:53.072Z,16.00
2018-10-18T18:08:56.799Z,15.90
2018-10-18T18:13:59.968Z,15.80
2018-10-18T18:19:03.066Z,15.70
2018-10-18T18:24:06.274Z,15.70
2018-10-18T18:29:09.368Z,15.60
2018-10-18T18:34:12.645Z,15.50
2018-10-18T18:39:15.785Z,15.50
2018-10-18T18:44:18.908Z,15.40
2018-10-18T18:49:22.207Z,15.40
2018-10-18T18:54:25.375Z,15.30
2018-10-18T18:59:28.516Z,15.20
2018-10-18T19:04:31.667Z,15.20
2018-10-18T19:09:34.842Z,15.20
2018-10-18T19:14:37.994Z,15.10
2018-10-18T19:19:41.139Z,15.10
2018-10-18T19:24:44.301Z,15.00
2018-10-18T19:29:47.465Z,15.00
2018-10-18T19:34:50.627Z,15.10
2018-10-18T19:39:53.747Z,15.00
2018-10-18T19:44:56.871Z,15.00
2018-10-18T19:50:00.009Z,15.00
2018-10-18T19:55:03.347Z,15.00
2018-10-18T20:00:07.522Z,14.90
2018-10-18T20:05:10.706Z,14.90
2018-10-18T20:10:13.814Z,14.80
2018-10-18T20:15:17.056Z,14.80
2018-10-18T20:20:20.144Z,14.80
2018-10-18T20:25:23.336Z,14.70
2018-10-18T20:30:26.469Z,14.70
2018-10-18T20:35:29.733Z,14.70
2018-10-18T20:40:32.847Z,14.70
2018-10-18T20:45:36.765Z,14.60
2018-10-18T20:50:39.874Z,14.60
2018-10-18T20:55:43.097Z,14.60
2018-10-18T21:00:46.250Z,14.60
2018-10-18T21:05:49.405Z,14.50
2018-10-18T21:10:52.610Z,14.50
2018-10-18T21:15:55.779Z,14.50
2018-10-18T21:20:58.946Z,14.40
2018-10-18T21:26:02.195Z,14.40
2018-10-18T21:31:05.862Z,14.30
2018-10-18T21:36:08.984Z,14.30
2018-10-18T21:41:12.210Z,14.20
2018-10-18T21:46:15.319Z,14.20
2018-10-18T21:51:18.470Z,14.20
2018-10-18T21:56:21.628Z,14.10
2018-10-18T22:01:24.791Z,14.00
2018-10-18T22:06:27.929Z,14.00
2018-10-18T22:11:31.033Z,14.00
2018-10-18T22:16:34.187Z,14.00
2018-10-18T22:21:38.384Z,14.00
2018-10-18T22:26:41.517Z,14.00
2018-10-18T22:31:44.734Z,14.00
2018-10-18T22:36:47.876Z,13.90
2018-10-18T22:41:50.952Z,13.90
2018-10-18T22:46:54.196Z,13.90
2018-10-18T22:51:57.367Z,13.90
2018-10-18T22:57:00.530Z,13.80
2018-10-18T23:02:03.733Z,13.80
2018-10-18T23:07:06.930Z,13.70
2018-10-18T23:12:10.089Z,13.80
2018-10-18T23:17:13.262Z,13.70
2018-10-18T23:22:16.345Z,13.70
2018-10-18T23:27:18.841Z,13.60
2018-10-18T23:32:21.956Z,13.60
2018-10-18T23:37:25.056Z,13.60
2018-10-18T23:42:28.248Z,13.50
2018-10-18T23:47:31.400Z,13.50
2018-10-18T23:52:34.770Z,13.40
2018-10-18T23:57:37.941Z,13.30
